createdAt,value
2018-07-28T00:00:10.129Z,81.00
2018-07-28T00:01:10.181Z,84.40
2018-07-28T00:02:10.245Z,69.20
2018-07-28T00:03:10.287Z,73.20
2018-07-28T00:04:10.361Z,67.60
2018-07-28T00:05:10.351Z,70.50
2018-07-28T00:06:10.411Z,76.30
2018-07-28T00:07:10.501Z,82.80
2018-07-28T00:08:10.506Z,74.90
2018-07-28T00:09:10.554Z,69.70
2018-07-28T00:10:10.577Z,73.90
2018-07-28T00:11:10.644Z,75.10
2018-07-28T00:12:10.681Z,77.40
2018-07-28T00:13:10.732Z,65.90
2018-07-28T00:14:10.767Z,69.80
2018-07-28T00:15:10.835Z,70.50
2018-07-28T00:16:10.922Z,68.80
2018-07-28T00:17:10.948Z,73.80
2018-07-28T00:18:10.972Z,69.00
2018-07-28T00:19:11.007Z,78.90
2018-07-28T00:20:11.068Z,65.00
2018-07-28T00:21:11.065Z,74.90
2018-07-28T00:22:11.167Z,69.40
2018-07-28T00:23:11.209Z,72.60
2018-07-28T00:24:11.220Z,66.20
2018-07-28T00:25:11.291Z,72.30
2018-07-28T00:26:11.313Z,73.90
2018-07-28T00:27:11.387Z,78.40
2018-07-28T00:28:11.406Z,80.30
2018-07-28T00:29:11.462Z,79.50
2018-07-28T00:30:11.533Z,84.00
2018-07-28T00:31:11.556Z,81.10
2018-07-28T00:32:11.606Z,67.20
2018-07-28T00:33:11.636Z,69.60
2018-07-28T00:34:11.712Z,75.50
2018-07-28T00:35:11.789Z,78.40
2018-07-28T00:36:11.795Z,85.60
2018-07-28T00:37:11.826Z,79.70
2018-07-28T00:38:11.888Z,79.30
2018-07-28T00:39:11.909Z,85.60
2018-07-28T00:40:11.975Z,97.90
2018-07-28T00:41:12.007Z,93.60
2018-07-28T00:42:12.061Z,100.40
2018-07-28T00:43:12.106Z,88.50
2018-07-28T00:44:12.155Z,97.30
2018-07-28T00:45:12.206Z,106.30
2018-07-28T00:46:12.250Z,104.00
2018-07-28T00:47:12.283Z,98.40
2018-07-28T00:48:12.392Z,102.60
2018-07-28T00:49:12.408Z,109.50
2018-07-28T00:50:12.411Z,106.30
2018-07-28T00:51:12.495Z,108.50
2018-07-28T00:52:12.501Z,108.30
2018-07-28T00:53:12.561Z,110.30
2018-07-28T00:54:12.635Z,109.20
2018-07-28T00:55:12.637Z,101.90
2018-07-28T00:56:12.665Z,95.20
2018-07-28T00:57:12.726Z,95.30
2018-07-28T00:58:12.772Z,101.30
2018-07-28T00:59:12.869Z,97.30
2018-07-28T01:00:12.859Z,105.40
2018-07-28T01:01:12.935Z,106.90
2018-07-28T01:02:12.957Z,118.10
2018-07-28T01:03:13.020Z,113.00
2018-07-28T01:04:13.081Z,97.00
2018-07-28T01:05:13.132Z,93.20
2018-07-28T01:06:13.113Z,98.40
2018-07-28T01:07:13.206Z,106.50
2018-07-28T01:08:13.250Z,98.70
2018-07-28T01:09:13.269Z,95.60
2018-07-28T01:10:13.319Z,102.30
2018-07-28T01:11:13.400Z,107.90
2018-07-28T01:12:13.407Z,105.00
2018-07-28T01:13:13.463Z,102.80
2018-07-28T01:14:13.513Z,107.30
2018-07-28T01:15:13.614Z,120.10
2018-07-28T01:16:13.592Z,135.20
2018-07-28T01:17:13.658Z,113.40
2018-07-28T01:18:13.682Z,111.10
2018-07-28T01:19:13.740Z,127.50
2018-07-28T01:20:13.809Z,131.50
2018-07-28T01:21:13.812Z,117.50
2018-07-28T01:22:13.873Z,114.10
2018-07-28T01:23:13.911Z,122.90
2018-07-28T01:24:13.997Z,146.20
2018-07-28T01:25:14.015Z,131.40
2018-07-28T01:26:14.082Z,131.70
2018-07-28T01:27:14.091Z,138.50
2018-07-28T01:28:14.153Z,128.40
2018-07-28T01:29:14.183Z,138.80
2018-07-28T01:30:14.236Z,143.30
2018-07-28T01:31:14.274Z,151.30
2018-07-28T01:32:14.312Z,142.50
2018-07-28T01:33:14.375Z,142.10
2018-07-28T01:34:14.388Z,121.70
2018-07-28T01:35:14.457Z,116.10
2018-07-28T01:36:14.516Z,118.40
2018-07-28T01:37:14.537Z,119.30
2018-07-28T01:38:14.601Z,115.50
2018-07-28T01:39:14.641Z,133.00
2018-07-28T01:40:14.703Z,121.00
2018-07-28T01:41:14.706Z,147.40
2018-07-28T01:42:14.765Z,148.90
2018-07-28T01:43:14.811Z,157.30
2018-07-28T01:44:14.878Z,153.80
2018-07-28T01:45:14.908Z,155.30
2018-07-28T01:46:14.952Z,172.90
2018-07-28T01:47:14.990Z,167.00
2018-07-28T01:48:15.064Z,172.60
2018-07-28T01:49:15.092Z,179.80
2018-07-28T01:50:15.137Z,180.30
2018-07-28T01:51:15.208Z,186.10
2018-07-28T01:52:15.236Z,164.10
2018-07-28T01:53:15.263Z,172.30
2018-07-28T01:54:15.312Z,162.80
2018-07-28T01:55:15.350Z,160.60
2018-07-28T01:56:15.401Z,198.10
2018-07-28T01:57:15.442Z,195.00
2018-07-28T01:58:15.546Z,183.80
2018-07-28T01:59:15.542Z,171.10
2018-07-28T02:00:15.579Z,151.10
2018-07-28T02:01:15.676Z,157.90
2018-07-28T02:02:15.670Z,141.60
2018-07-28T02:03:15.734Z,191.30
2018-07-28T02:04:15.761Z,173.90
2018-07-28T02:05:15.822Z,168.00
2018-07-28T02:06:15.855Z,171.90
2018-07-28T02:07:15.910Z,189.70
2018-07-28T02:08:15.974Z,175.50
2018-07-28T02:09:16.033Z,183.90
2018-07-28T02:10:16.061Z,224.70
2018-07-28T02:11:16.084Z,211.60
2018-07-28T02:12:16.140Z,213.20
2018-07-28T02:13:16.172Z,236.70
2018-07-28T02:14:16.222Z,229.10
2018-07-28T02:15:16.261Z,240.80
2018-07-28T02:16:16.308Z,240.60
2018-07-28T02:17:16.338Z,245.80
2018-07-28T02:18:16.408Z,251.10
2018-07-28T02:19:16.436Z,243.00
2018-07-28T02:20:16.477Z,247.10
2018-07-28T02:21:16.520Z,245.00
2018-07-28T02:22:16.561Z,255.40
2018-07-28T02:23:16.633Z,246.60
2018-07-28T02:24:16.704Z,257.20
2018-07-28T02:25:16.715Z,246.10
2018-07-28T02:26:16.753Z,262.70
2018-07-28T02:27:16.805Z,256.40
2018-07-28T02:28:16.849Z,255.90
2018-07-28T02:29:16.897Z,245.50
2018-07-28T02:30:16.964Z,262.40
2018-07-28T02:31:16.989Z,230.10
2018-07-28T02:32:17.029Z,244.50
2018-07-28T02:33:17.133Z,251.10
2018-07-28T02:34:17.114Z,231.10
2018-07-28T02:35:17.186Z,218.20
2018-07-28T02:36:17.220Z,213.30
2018-07-28T02:37:17.261Z,223.60
2018-07-28T02:38:17.298Z,246.40
2018-07-28T02:39:17.329Z,251.30
2018-07-28T02:40:17.409Z,218.30
2018-07-28T02:41:17.413Z,225.00
2018-07-28T02:42:17.472Z,230.50
2018-07-28T02:43:17.521Z,224.30
2018-07-28T02:44:17.567Z,232.40
2018-07-28T02:45:17.616Z,215.80
2018-07-28T02:46:17.659Z,210.50
2018-07-28T02:47:17.686Z,217.20
2018-07-28T02:48:17.726Z,226.30
2018-07-28T02:49:17.782Z,223.10
2018-07-28T02:50:17.838Z,213.70
2018-07-28T02:51:17.854Z,221.80
2018-07-28T02:52:17.924Z,220.20
2018-07-28T02:53:17.965Z,225.40
2018-07-28T02:54:18.029Z,226.30
2018-07-28T02:55:18.032Z,235.20
2018-07-28T02:56:18.108Z,237.90
2018-07-28T02:57:18.151Z,243.10
2018-07-28T02:58:18.211Z,248.90
2018-07-28T02:59:18.243Z,252.50
2018-07-28T03:00:18.343Z,242.90
2018-07-28T03:01:18.318Z,242.50
2018-07-28T03:02:18.337Z,238.80
2018-07-28T03:03:18.412Z,234.50
2018-07-28T03:04:18.468Z,234.30
2018-07-28T03:05:18.510Z,226.20
2018-07-28T03:06:18.546Z,223.10
2018-07-28T03:07:18.604Z,239.50
2018-07-28T03:08:18.644Z,231.80
2018-07-28T03:09:18.690Z,229.70
2018-07-28T03:10:18.746Z,235.10
2018-07-28T03:11:18.772Z,219.40
2018-07-28T03:12:18.828Z,220.40
2018-07-28T03:13:18.853Z,221.70
2018-07-28T03:14:18.925Z,240.40
2018-07-28T03:15:18.964Z,221.50
2018-07-28T03:16:18.983Z,236.50
2018-07-28T03:17:19.032Z,253.30
2018-07-28T03:18:19.101Z,232.40
2018-07-28T03:19:19.138Z,216.90
2018-07-28T03:20:19.191Z,231.60
2018-07-28T03:21:19.197Z,227.70
2018-07-28T03:22:19.264Z,287.20
2018-07-28T03:23:19.294Z,236.90
2018-07-28T03:24:19.336Z,224.90
2018-07-28T03:25:19.398Z,222.10
2018-07-28T03:26:19.452Z,205.00
2018-07-28T03:27:19.469Z,215.80
2018-07-28T03:28:19.725Z,220.40
2018-07-28T03:29:19.607Z,228.30
2018-07-28T03:30:19.621Z,222.60
2018-07-28T03:31:19.649Z,191.60
2018-07-28T03:32:19.701Z,209.70
2018-07-28T03:33:19.750Z,181.70
2018-07-28T03:34:19.794Z,171.00
2018-07-28T03:35:19.822Z,183.50
2018-07-28T03:36:19.884Z,188.20
2018-07-28T03:37:19.936Z,184.70
2018-07-28T03:38:20.014Z,182.60
2018-07-28T03:39:19.994Z,174.30
2018-07-28T03:40:20.058Z,159.90
2018-07-28T03:41:20.104Z,149.80
2018-07-28T03:42:20.143Z,130.20
2018-07-28T03:43:20.172Z,142.50
2018-07-28T03:44:20.211Z,146.70
2018-07-28T03:45:20.278Z,132.60
2018-07-28T03:46:20.337Z,133.40
2018-07-28T03:47:20.354Z,120.10
2018-07-28T03:48:20.400Z,141.10
2018-07-28T03:49:20.538Z,120.80
2018-07-28T03:50:20.528Z,116.50
2018-07-28T03:51:20.555Z,129.00
2018-07-28T03:52:20.582Z,138.90
2018-07-28T03:53:20.627Z,135.70
2018-07-28T03:54:20.723Z,139.80
2018-07-28T03:55:20.722Z,133.10
2018-07-28T03:56:20.999Z,138.30
2018-07-28T03:57:20.814Z,145.20
2018-07-28T03:58:20.844Z,131.20
2018-07-28T03:59:20.889Z,143.60
2018-07-28T04:00:20.959Z,151.90
2018-07-28T04:01:21.021Z,146.50
2018-07-28T04:02:21.011Z,139.50
2018-07-28T04:03:21.074Z,154.90
2018-07-28T04:04:21.144Z,161.40
2018-07-28T04:05:21.146Z,158.10
2018-07-28T04:06:21.210Z,156.30
2018-07-28T04:07:21.271Z,144.40
2018-07-28T04:08:21.285Z,183.10
2018-07-28T04:09:21.345Z,158.80
2018-07-28T04:10:21.374Z,149.10
2018-07-28T04:11:21.401Z,163.00
2018-07-28T04:12:21.440Z,165.60
2018-07-28T04:13:21.533Z,167.90
2018-07-28T04:14:21.632Z,155.90
2018-07-28T04:15:21.599Z,151.50
2018-07-28T04:16:21.678Z,153.80
2018-07-28T04:17:21.730Z,177.20
2018-07-28T04:18:21.734Z,167.40
2018-07-28T04:19:21.753Z,178.40
2018-07-28T04:20:21.825Z,173.60
2018-07-28T04:21:21.852Z,167.40
2018-07-28T04:22:21.913Z,163.10
2018-07-28T04:23:21.950Z,178.20
2018-07-28T04:24:22.020Z,174.40
2018-07-28T04:25:22.025Z,175.70
2018-07-28T04:26:22.068Z,171.10
2018-07-28T04:27:22.131Z,189.40
2018-07-28T04:28:22.179Z,183.50
2018-07-28T04:29:22.276Z,192.10
2018-07-28T04:30:22.326Z,188.70
2018-07-28T04:31:22.319Z,192.80
2018-07-28T04:32:22.370Z,192.80
2018-07-28T04:33:22.396Z,204.80
2018-07-28T04:34:22.462Z,194.40
2018-07-28T04:35:22.489Z,219.40
2018-07-28T04:36:22.521Z,208.50
2018-07-28T04:37:22.576Z,199.70
2018-07-28T04:38:22.595Z,211.30
2018-07-28T04:39:22.665Z,218.10
2018-07-28T04:40:22.711Z,210.80
2018-07-28T04:41:22.777Z,221.30
2018-07-28T04:42:22.775Z,221.90
2018-07-28T04:43:22.852Z,220.70
2018-07-28T04:44:22.879Z,226.80
2018-07-28T04:45:22.904Z,228.40
2018-07-28T04:46:22.947Z,223.40
2018-07-28T04:47:23.041Z,222.70
2018-07-28T04:48:23.052Z,223.90
2018-07-28T04:49:23.090Z,232.20
2018-07-28T04:50:23.132Z,243.70
2018-07-28T04:51:23.175Z,253.20
2018-07-28T04:52:23.215Z,245.00
2018-07-28T04:53:23.279Z,258.20
2018-07-28T04:54:23.332Z,249.10
2018-07-28T04:55:23.353Z,259.90
2018-07-28T04:56:23.400Z,264.10
2018-07-28T04:57:23.460Z,249.90
2018-07-28T04:58:23.460Z,275.50
2018-07-28T04:59:23.544Z,267.70
2018-07-28T05:00:23.555Z,269.30
2018-07-28T05:01:23.633Z,261.70
2018-07-28T05:02:23.630Z,273.20
2018-07-28T05:03:23.708Z,279.00
2018-07-28T05:04:23.792Z,281.60
2018-07-28T05:05:23.835Z,273.50
2018-07-28T05:06:23.818Z,266.10
2018-07-28T05:07:24.017Z,272.00
2018-07-28T05:08:23.934Z,262.20
2018-07-28T05:09:23.983Z,284.20
2018-07-28T05:10:24.023Z,289.50
2018-07-28T05:11:24.063Z,268.60
2018-07-28T05:12:24.090Z,259.20
2018-07-28T05:13:24.144Z,255.90
2018-07-28T05:14:24.200Z,273.20
2018-07-28T05:15:24.244Z,284.20
2018-07-28T05:16:24.274Z,263.60
2018-07-28T05:17:24.328Z,268.30
2018-07-28T05:18:24.360Z,266.10
2018-07-28T05:19:24.453Z,274.50
2018-07-28T05:20:24.424Z,275.50
2018-07-28T05:21:24.689Z,269.10
2018-07-28T05:22:24.539Z,289.70
2018-07-28T05:23:24.572Z,290.40
2018-07-28T05:24:24.635Z,284.30
2018-07-28T05:25:24.678Z,285.70
2018-07-28T05:26:24.726Z,276.60
2018-07-28T05:27:24.809Z,281.40
2018-07-28T05:28:24.793Z,282.70
2018-07-28T05:29:24.829Z,273.50
2018-07-28T05:30:24.892Z,274.20
2018-07-28T05:31:24.910Z,292.10
2018-07-28T05:32:25.181Z,276.10
2018-07-28T05:33:25.015Z,255.70
2018-07-28T05:34:25.100Z,269.80
2018-07-28T05:35:25.148Z,279.20
2018-07-28T05:36:25.194Z,280.30
2018-07-28T05:37:25.209Z,285.80
2018-07-28T05:38:25.236Z,292.50
2018-07-28T05:39:25.270Z,275.30
2018-07-28T05:40:25.303Z,294.30
2018-07-28T05:41:25.386Z,269.20
2018-07-28T05:42:25.465Z,283.30
2018-07-28T05:43:25.467Z,284.60
2018-07-28T05:44:25.497Z,307.10
2018-07-28T05:45:25.581Z,277.00
2018-07-28T05:46:25.574Z,279.20
2018-07-28T05:47:25.642Z,289.70
2018-07-28T05:48:25.670Z,289.50
2018-07-28T05:49:25.714Z,296.90
2018-07-28T05:50:25.751Z,280.50
2018-07-28T05:51:25.789Z,305.70
2018-07-28T05:52:25.872Z,312.80
2018-07-28T05:53:25.900Z,330.20
2018-07-28T05:54:25.948Z,310.00
2018-07-28T05:55:25.994Z,309.00
2018-07-28T05:56:26.010Z,315.60
2018-07-28T05:57:26.068Z,317.80
2018-07-28T05:58:26.109Z,322.10
2018-07-28T05:59:26.377Z,317.90
2018-07-28T06:00:26.175Z,311.40
2018-07-28T06:01:26.212Z,328.50
2018-07-28T06:02:26.395Z,322.50
2018-07-28T06:03:26.342Z,348.90
2018-07-28T06:04:26.391Z,345.30
2018-07-28T06:05:26.432Z,340.90
2018-07-28T06:06:26.465Z,373.40
2018-07-28T06:07:26.540Z,364.50
2018-07-28T06:08:26.559Z,367.30
2018-07-28T06:09:26.580Z,362.80
2018-07-28T06:10:26.633Z,367.70
2018-07-28T06:11:26.677Z,358.80
2018-07-28T06:12:26.737Z,365.30
2018-07-28T06:13:26.761Z,379.90
2018-07-28T06:14:26.819Z,365.30
2018-07-28T06:15:26.849Z,389.30
2018-07-28T06:16:26.932Z,376.10
2018-07-28T06:17:26.940Z,368.00
2018-07-28T06:18:26.969Z,365.10
2018-07-28T06:19:27.067Z,375.30
2018-07-28T06:20:27.077Z,397.10
2018-07-28T06:21:27.113Z,379.60
2018-07-28T06:22:27.139Z,362.60
2018-07-28T06:23:27.209Z,372.00
2018-07-28T06:24:27.244Z,367.00
2018-07-28T06:25:27.294Z,367.00
2018-07-28T06:26:27.350Z,376.10
2018-07-28T06:27:27.384Z,363.20
2018-07-28T06:28:27.592Z,387.50
2018-07-28T06:29:27.460Z,378.90
2018-07-28T06:30:27.569Z,371.50
2018-07-28T06:31:27.542Z,377.20
2018-07-28T06:32:27.578Z,378.50
2018-07-28T06:33:27.644Z,376.30
2018-07-28T06:34:27.664Z,375.20
2018-07-28T06:35:27.704Z,381.60
2018-07-28T06:36:27.832Z,379.90
2018-07-28T06:37:27.816Z,368.10
2018-07-28T06:38:27.854Z,368.70
2018-07-28T06:39:27.943Z,369.10
2018-07-28T06:40:27.934Z,371.20
2018-07-28T06:41:27.973Z,391.60
2018-07-28T06:42:28.025Z,382.00
2018-07-28T06:43:28.041Z,386.10
2018-07-28T06:44:28.106Z,373.40
2018-07-28T06:45:28.146Z,379.10
2018-07-28T06:46:28.223Z,381.20
2018-07-28T06:47:28.240Z,372.60
2018-07-28T06:48:28.301Z,370.90
2018-07-28T06:49:28.328Z,377.20
2018-07-28T06:50:28.377Z,361.40
2018-07-28T06:51:28.397Z,369.90
2018-07-28T06:52:28.472Z,371.50
2018-07-28T06:53:28.534Z,386.30
2018-07-28T06:54:28.536Z,380.70
2018-07-28T06:55:28.601Z,366.20
2018-07-28T06:56:28.625Z,381.70
2018-07-28T06:57:28.706Z,381.80
2018-07-28T06:58:28.733Z,377.10
2018-07-28T06:59:28.762Z,375.00
2018-07-28T07:00:28.811Z,383.30
2018-07-28T07:01:29.030Z,376.40
2018-07-28T07:02:28.917Z,375.50
2018-07-28T07:03:28.962Z,361.30
2018-07-28T07:04:28.990Z,374.50
2018-07-28T07:05:29.020Z,370.90
2018-07-28T07:06:29.050Z,364.30
2018-07-28T07:07:29.098Z,361.30
2018-07-28T07:08:29.135Z,367.10
2018-07-28T07:09:29.193Z,354.60
2018-07-28T07:10:29.249Z,361.80
2018-07-28T07:11:29.337Z,356.10
2018-07-28T07:12:29.525Z,379.00
2018-07-28T07:13:29.376Z,366.00
2018-07-28T07:14:29.424Z,354.50
2018-07-28T07:15:29.467Z,359.00
2018-07-28T07:16:29.470Z,350.50
2018-07-28T07:17:29.546Z,355.60
2018-07-28T07:18:29.574Z,360.80
2018-07-28T07:19:29.605Z,372.20
2018-07-28T07:20:29.662Z,366.80
2018-07-28T07:21:29.714Z,360.60
2018-07-28T07:22:29.771Z,355.70
2018-07-28T07:23:30.010Z,351.60
2018-07-28T07:24:29.851Z,359.70
2018-07-28T07:25:29.894Z,360.20
2018-07-28T07:26:29.921Z,379.00
2018-07-28T07:27:29.965Z,349.10
2018-07-28T07:28:30.062Z,362.20
2018-07-28T07:29:30.081Z,336.60
2018-07-28T07:30:30.111Z,361.70
2018-07-28T07:31:30.135Z,365.70
2018-07-28T07:32:30.182Z,351.30
2018-07-28T07:33:30.239Z,380.00
2018-07-28T07:34:30.265Z,382.90
2018-07-28T07:35:30.293Z,350.60
2018-07-28T07:36:30.347Z,346.10
2018-07-28T07:37:30.427Z,332.90
2018-07-28T07:38:30.445Z,345.40
2018-07-28T07:39:30.482Z,340.70
2018-07-28T07:40:30.511Z,363.40
2018-07-28T07:41:30.565Z,366.80
2018-07-28T07:42:30.844Z,357.40
2018-07-28T07:43:30.681Z,350.40
2018-07-28T07:44:30.717Z,356.70
2018-07-28T07:45:30.745Z,419.30
2018-07-28T07:46:30.794Z,348.20
2018-07-28T07:47:30.899Z,332.30
2018-07-28T07:48:30.891Z,345.30
2018-07-28T07:49:30.919Z,339.20
2018-07-28T07:50:30.945Z,339.30
2018-07-28T07:51:30.978Z,352.40
2018-07-28T07:52:31.042Z,343.60
2018-07-28T07:53:31.087Z,359.40
2018-07-28T07:54:31.138Z,353.30
2018-07-28T07:55:31.171Z,352.40
2018-07-28T07:56:31.221Z,344.40
2018-07-28T07:57:31.501Z,337.00
2018-07-28T07:58:31.295Z,343.10
2018-07-28T07:59:31.352Z,390.30
2018-07-28T08:00:31.380Z,345.80
2018-07-28T08:01:31.453Z,338.10
2018-07-28T08:02:31.467Z,370.10
2018-07-28T08:03:31.515Z,328.70
2018-07-28T08:04:31.547Z,343.10
2018-07-28T08:05:31.588Z,339.30
2018-07-28T08:06:31.676Z,348.40
2018-07-28T08:07:31.675Z,342.40
2018-07-28T08:08:31.906Z,349.70
2018-07-28T08:09:31.761Z,348.50
2018-07-28T08:10:31.818Z,355.00
2018-07-28T08:11:31.889Z,334.40
2018-07-28T08:12:31.952Z,320.10
2018-07-28T08:13:31.939Z,358.40
2018-07-28T08:14:31.977Z,322.60
2018-07-28T08:15:32.020Z,347.30
2018-07-28T08:16:32.065Z,330.10
2018-07-28T08:17:32.098Z,397.10
2018-07-28T08:18:32.145Z,324.50
2018-07-28T08:19:32.395Z,342.70
2018-07-28T08:20:32.251Z,359.80
2018-07-28T08:21:32.300Z,380.80
2018-07-28T08:22:32.325Z,339.60
2018-07-28T08:23:32.375Z,319.50
2018-07-28T08:24:32.402Z,332.10
2018-07-28T08:25:32.474Z,323.10
2018-07-28T08:26:32.549Z,329.20
2018-07-28T08:27:32.532Z,332.50
2018-07-28T08:28:32.546Z,325.40
2018-07-28T08:29:32.646Z,344.50
2018-07-28T08:30:32.638Z,320.40
2018-07-28T08:31:32.888Z,355.20
2018-07-28T08:32:32.729Z,318.10
2018-07-28T08:33:32.801Z,356.50
2018-07-28T08:34:32.872Z,382.90
2018-07-28T08:35:32.879Z,327.70
2018-07-28T08:36:32.914Z,325.50
2018-07-28T08:37:32.969Z,347.70
2018-07-28T08:38:33.046Z,338.70
2018-07-28T08:39:33.054Z,332.40
2018-07-28T08:40:33.098Z,334.40
2018-07-28T08:41:33.128Z,336.50
2018-07-28T08:42:33.378Z,319.30
2018-07-28T08:43:33.232Z,322.70
2018-07-28T08:44:33.237Z,336.60
2018-07-28T08:45:33.288Z,329.20
2018-07-28T08:46:33.343Z,323.90
2018-07-28T08:47:33.389Z,321.00
2018-07-28T08:48:33.430Z,331.20
2018-07-28T08:49:33.454Z,329.40
2018-07-28T08:50:33.501Z,321.40
2018-07-28T08:51:33.569Z,322.60
2018-07-28T08:52:33.589Z,345.90
2018-07-28T08:53:33.835Z,319.80
2018-07-28T08:54:33.746Z,332.70
2018-07-28T08:55:33.806Z,312.80
2018-07-28T08:56:33.766Z,299.20
2018-07-28T08:57:33.794Z,320.60
2018-07-28T08:58:33.867Z,313.90
2018-07-28T08:59:33.864Z,306.70
2018-07-28T09:00:33.927Z,313.20
2018-07-28T09:01:33.990Z,317.60
2018-07-28T09:02:34.042Z,297.90
2018-07-28T09:03:34.064Z,304.50
2018-07-28T09:04:34.068Z,314.10
2018-07-28T09:05:34.150Z,305.90
2018-07-28T09:06:34.222Z,300.60
2018-07-28T09:07:34.246Z,305.50
2018-07-28T09:08:34.496Z,296.60
2018-07-28T09:09:34.333Z,304.20
2018-07-28T09:10:34.351Z,306.60
2018-07-28T09:11:34.399Z,303.90
2018-07-28T09:12:34.421Z,305.80
2018-07-28T09:13:34.473Z,312.00
2018-07-28T09:14:34.515Z,309.70
2018-07-28T09:15:34.580Z,316.00
2018-07-28T09:16:34.693Z,307.00
2018-07-28T09:17:34.703Z,300.40
2018-07-28T09:18:34.714Z,310.80
2018-07-28T09:19:34.936Z,324.40
2018-07-28T09:20:34.767Z,315.10
2018-07-28T09:21:34.824Z,306.50
2018-07-28T09:22:34.899Z,305.40
2018-07-28T09:23:34.972Z,308.90
2018-07-28T09:24:34.951Z,305.70
2018-07-28T09:25:35.023Z,286.60
2018-07-28T09:26:35.020Z,301.70
2018-07-28T09:27:35.063Z,293.90
2018-07-28T09:28:35.156Z,287.80
2018-07-28T09:29:35.177Z,301.30
2018-07-28T09:30:35.308Z,294.70
2018-07-28T09:31:35.500Z,286.20
2018-07-28T09:32:35.290Z,288.00
2018-07-28T09:33:35.355Z,290.90
2018-07-28T09:34:35.396Z,289.40
2018-07-28T09:35:35.443Z,296.40
2018-07-28T09:36:35.465Z,262.70
2018-07-28T09:37:35.538Z,287.30
2018-07-28T09:38:35.566Z,274.00
2018-07-28T09:39:35.598Z,283.90
2018-07-28T09:40:35.627Z,273.20
2018-07-28T09:41:35.671Z,280.20
2018-07-28T09:42:35.857Z,279.70
2018-07-28T09:43:35.756Z,287.80
2018-07-28T09:44:35.861Z,270.20
2018-07-28T09:45:35.847Z,277.80
2018-07-28T09:46:35.899Z,288.20
2018-07-28T09:47:35.937Z,286.80
2018-07-28T09:48:35.981Z,276.00
2018-07-28T09:49:36.021Z,279.00
2018-07-28T09:50:36.055Z,288.50
2018-07-28T09:51:36.086Z,308.30
2018-07-28T09:52:36.132Z,290.10
2018-07-28T09:53:36.305Z,296.40
2018-07-28T09:54:36.224Z,296.30
2018-07-28T09:55:36.257Z,290.00
2018-07-28T09:56:36.354Z,281.30
2018-07-28T09:57:36.347Z,296.40
2018-07-28T09:58:36.407Z,299.40
2018-07-28T09:59:36.429Z,294.70
2018-07-28T10:00:36.477Z,288.00
2018-07-28T10:01:36.533Z,306.80
2018-07-28T10:02:36.580Z,316.40
2018-07-28T10:03:36.619Z,304.30
2018-07-28T10:04:36.818Z,298.90
2018-07-28T10:05:36.895Z,293.10
2018-07-28T10:06:36.730Z,301.50
2018-07-28T10:07:36.793Z,300.10
2018-07-28T10:08:36.832Z,292.40
2018-07-28T10:09:36.878Z,273.90
2018-07-28T10:10:36.935Z,294.30
2018-07-28T10:11:36.977Z,305.10
2018-07-28T10:12:36.989Z,294.10
2018-07-28T10:13:37.061Z,303.70
2018-07-28T10:14:37.082Z,296.00
2018-07-28T10:15:37.164Z,303.40
2018-07-28T10:16:37.275Z,301.10
2018-07-28T10:17:37.239Z,295.70
2018-07-28T10:18:37.265Z,289.50
2018-07-28T10:19:37.281Z,295.00
2018-07-28T10:20:37.326Z,299.00
2018-07-28T10:21:37.425Z,294.50
2018-07-28T10:22:37.473Z,300.20
2018-07-28T10:23:37.466Z,303.50
2018-07-28T10:24:37.521Z,307.20
2018-07-28T10:25:37.541Z,297.90
2018-07-28T10:26:37.594Z,305.30
2018-07-28T10:27:37.612Z,314.90
2018-07-28T10:28:37.664Z,288.00
2018-07-28T10:29:37.721Z,303.80
2018-07-28T10:30:37.752Z,295.60
2018-07-28T10:31:37.788Z,288.10
2018-07-28T10:32:37.842Z,273.80
2018-07-28T10:33:37.889Z,257.80
2018-07-28T10:34:37.952Z,230.10
2018-07-28T10:35:37.982Z,202.10
2018-07-28T10:36:38.095Z,188.30
2018-07-28T10:37:38.082Z,184.00
2018-07-28T10:38:38.083Z,163.80
2018-07-28T10:39:38.176Z,105.70
2018-07-28T10:40:38.181Z,58.50
2018-07-28T10:41:38.244Z,47.90
2018-07-28T10:42:38.299Z,48.50
2018-07-28T10:43:38.314Z,61.00
2018-07-28T10:44:38.359Z,63.60
2018-07-28T10:45:38.473Z,58.00
2018-07-28T10:46:38.546Z,50.90
2018-07-28T10:47:38.533Z,81.50
2018-07-28T10:48:38.561Z,48.00
2018-07-28T10:49:38.614Z,61.70
2018-07-28T10:50:38.645Z,64.80
2018-07-28T10:51:38.680Z,58.80
2018-07-28T10:52:38.733Z,64.30
2018-07-28T10:53:38.781Z,77.60
2018-07-28T10:54:38.806Z,91.50
2018-07-28T10:55:38.847Z,55.10
2018-07-28T10:56:38.966Z,87.30
2018-07-28T10:57:38.937Z,48.00
2018-07-28T10:58:39.010Z,41.10
2018-07-28T10:59:39.020Z,101.80
2018-07-28T11:00:39.086Z,67.30
2018-07-28T11:01:39.149Z,53.00
2018-07-28T11:02:39.214Z,50.90
2018-07-28T11:03:39.240Z,53.20
2018-07-28T11:04:39.267Z,59.30
2018-07-28T11:05:39.312Z,71.50
2018-07-28T11:06:39.349Z,135.30
2018-07-28T11:07:39.383Z,94.40
2018-07-28T11:08:39.558Z,99.50
2018-07-28T11:09:39.496Z,112.50
2018-07-28T11:10:39.533Z,125.00
2018-07-28T11:11:39.640Z,115.90
2018-07-28T11:12:39.614Z,97.40
2018-07-28T11:13:39.683Z,96.70
2018-07-28T11:14:39.728Z,77.90
2018-07-28T11:15:39.880Z,69.20
2018-07-28T11:16:39.851Z,56.40
2018-07-28T11:17:39.886Z,47.90
2018-07-28T11:18:39.985Z,49.50
2018-07-28T11:19:39.996Z,51.50
2018-07-28T11:20:40.062Z,51.80
2018-07-28T11:21:40.085Z,45.60
2018-07-28T11:22:40.177Z,40.50
2018-07-28T11:23:40.159Z,40.10
2018-07-28T11:24:40.209Z,40.60
2018-07-28T11:25:40.279Z,42.30
2018-07-28T11:26:40.316Z,46.50
2018-07-28T11:27:40.358Z,42.80
2018-07-28T11:28:40.429Z,42.90
2018-07-28T11:29:40.463Z,44.50
2018-07-28T11:30:40.575Z,38.80
2018-07-28T11:31:40.619Z,36.60
2018-07-28T11:32:40.596Z,36.40
2018-07-28T11:33:40.680Z,31.10
2018-07-28T11:34:40.731Z,37.20
2018-07-28T11:35:40.760Z,40.00
2018-07-28T11:36:40.824Z,40.10
2018-07-28T11:37:40.878Z,41.40
2018-07-28T11:38:40.912Z,45.30
2018-07-28T11:39:40.952Z,42.40
2018-07-28T11:40:41.033Z,45.20
2018-07-28T11:41:41.123Z,48.60
2018-07-28T11:42:41.142Z,51.10
2018-07-28T11:43:41.203Z,51.30
2018-07-28T11:44:41.220Z,49.20
2018-07-28T11:45:41.292Z,50.70
2018-07-28T11:46:41.319Z,51.80
2018-07-28T11:47:41.351Z,55.00
2018-07-28T11:48:41.427Z,51.70
2018-07-28T11:49:41.464Z,46.80
2018-07-28T11:50:41.575Z,39.60
2018-07-28T11:51:41.584Z,39.30
2018-07-28T11:52:41.629Z,38.90
2018-07-28T11:53:41.671Z,37.00
2018-07-28T11:54:41.722Z,34.70
2018-07-28T11:55:41.756Z,34.60
2018-07-28T11:56:41.882Z,35.00
2018-07-28T11:57:41.868Z,34.00
2018-07-28T11:58:41.902Z,34.70
2018-07-28T11:59:41.965Z,33.80
2018-07-28T12:00:42.036Z,35.90
2018-07-28T12:01:42.105Z,33.00
2018-07-28T12:02:42.142Z,32.60
2018-07-28T12:03:42.201Z,31.70
2018-07-28T12:04:42.249Z,32.00
2018-07-28T12:05:42.314Z,33.50
2018-07-28T12:06:42.366Z,34.30
2018-07-28T12:07:42.392Z,35.00
2018-07-28T12:08:42.473Z,35.90
2018-07-28T12:09:42.498Z,38.70
2018-07-28T12:10:42.557Z,39.50
2018-07-28T12:11:42.651Z,41.50
2018-07-28T12:12:42.714Z,41.60
2018-07-28T12:13:42.775Z,42.90
2018-07-28T12:14:42.817Z,41.50
2018-07-28T12:15:42.821Z,37.60
2018-07-28T12:16:42.878Z,34.40
2018-07-28T12:17:42.911Z,31.80
2018-07-28T12:18:42.974Z,29.30
2018-07-28T12:19:43.034Z,31.60
2018-07-28T12:20:43.073Z,28.70
2018-07-28T12:21:43.139Z,27.60
2018-07-28T12:22:43.209Z,30.80
2018-07-28T12:23:43.297Z,30.30
2018-07-28T12:24:43.306Z,27.60
2018-07-28T12:25:43.396Z,27.70
2018-07-28T12:26:43.414Z,28.10
2018-07-28T12:27:43.495Z,27.10
2018-07-28T12:28:43.488Z,28.00
2018-07-28T12:29:43.533Z,31.20
2018-07-28T12:30:43.657Z,28.90
2018-07-28T12:31:43.683Z,28.30
2018-07-28T12:32:43.718Z,29.00
2018-07-28T12:33:43.766Z,31.90